sensor_id;sensor_type;location;lat;lon;timestamp;temperature;humidity
29403;DHT22;16382;59.942;30.472;2022-09-06T00:00:04;7.20;99.90
29403;DHT22;16382;59.942;30.472;2022-09-06T00:02:40;7.30;99.90
29403;DHT22;16382;59.942;30.472;2022-09-06T00:05:09;7.40;99.90
29403;DHT22;16382;59.942;30.472;2022-09-06T00:07:37;7.50;99.90
29403;DHT22;16382;59.942;30.472;2022-09-06T00:10:05;7.60;99.90
29403;DHT22;16382;59.942;30.472;2022-09-06T00:12:34;7.70;99.90
29403;DHT22;16382;59.942;30.472;2022-09-06T00:15:02;7.80;99.90
29403;DHT22;16382;59.942;30.472;2022-09-06T00:17:30;7.90;99.90
29403;DHT22;16382;59.942;30.472;2022-09-06T00:20:00;7.90;99.90
29403;DHT22;16382;59.942;30.472;2022-09-06T00:22:29;7.90;99.90
29403;DHT22;16382;59.942;30.472;2022-09-06T00:24:56;8.00;99.90
29403;DHT22;16382;59.942;30.472;2022-09-06T00:27:23;8.00;99.90
29403;DHT22;16382;59.942;30.472;2022-09-06T00:29:51;8.10;99.90
29403;DHT22;16382;59.942;30.472;2022-09-06T00:32:19;8.10;99.90
29403;DHT22;16382;59.942;30.472;2022-09-06T00:34:46;8.10;99.90
29403;DHT22;16382;59.942;30.472;2022-09-06T00:37:15;8.10;99.90
29403;DHT22;16382;59.942;30.472;2022-09-06T00:39:42;8.20;99.90
29403;DHT22;16382;59.942;30.472;2022-09-06T00:42:10;8.30;99.90
29403;DHT22;16382;59.942;30.472;2022-09-06T00:44:39;8.30;99.90
29403;DHT22;16382;59.942;30.472;2022-09-06T00:47:07;8.30;99.90
29403;DHT22;16382;59.942;30.472;2022-09-06T00:49:38;8.30;99.90
29403;DHT22;16382;59.942;30.472;2022-09-06T00:52:10;8.40;99.90
29403;DHT22;16382;59.942;30.472;2022-09-06T00:54:41;8.40;99.90
29403;DHT22;16382;59.942;30.472;2022-09-06T00:57:09;8.50;99.90
29403;DHT22;16382;59.942;30.472;2022-09-06T00:59:38;8.50;99.90
29403;DHT22;16382;59.942;30.472;2022-09-06T01:02:06;8.50;99.90
29403;DHT22;16382;59.942;30.472;2022-09-06T01:04:35;8.60;99.90
29403;DHT22;16382;59.942;30.472;2022-09-06T01:07:13;8.60;99.90
29403;DHT22;16382;59.942;30.472;2022-09-06T01:10:00;8.70;99.90
29403;DHT22;16382;59.942;30.472;2022-09-06T01:12:40;8.80;99.90
29403;DHT22;16382;59.942;30.472;2022-09-06T01:15:22;8.90;99.90
29403;DHT22;16382;59.942;30.472;2022-09-06T01:18:00;8.90;99.90
29403;DHT22;16382;59.942;30.472;2022-09-06T01:20:41;9.00;99.90
29403;DHT22;16382;59.942;30.472;2022-09-06T01:27:06;9.10;99.90
29403;DHT22;16382;59.942;30.472;2022-09-06T01:29:46;9.10;99.90
29403;DHT22;16382;59.942;30.472;2022-09-06T01:32:22;9.20;99.90
29403;DHT22;16382;59.942;30.472;2022-09-06T01:35:02;9.20;99.90
29403;DHT22;16382;59.942;30.472;2022-09-06T01:37:33;9.30;99.90
29403;DHT22;16382;59.942;30.472;2022-09-06T01:40:00;9.30;99.90
29403;DHT22;16382;59.942;30.472;2022-09-06T01:42:30;9.30;99.90
29403;DHT22;16382;59.942;30.472;2022-09-06T01:45:02;9.30;99.90
29403;DHT22;16382;59.942;30.472;2022-09-06T01:47:38;9.30;99.90
29403;DHT22;16382;59.942;30.472;2022-09-06T01:50:20;9.30;99.90
29403;DHT22;16382;59.942;30.472;2022-09-06T01:53:03;9.30;99.90
29403;DHT22;16382;59.942;30.472;2022-09-06T01:55:44;9.30;99.90
29403;DHT22;16382;59.942;30.472;2022-09-06T01:58:45;9.30;99.90
29403;DHT22;16382;59.942;30.472;2022-09-06T02:01:28;9.20;99.90
29403;DHT22;16382;59.942;30.472;2022-09-06T02:04:06;9.20;99.90
29403;DHT22;16382;59.942;30.472;2022-09-06T02:06:40;9.20;99.90
29403;DHT22;16382;59.942;30.472;2022-09-06T02:09:11;9.20;99.90
29403;DHT22;16382;59.942;30.472;2022-09-06T02:11:44;9.20;99.90
29403;DHT22;16382;59.942;30.472;2022-09-06T02:14:18;9.20;99.90
29403;DHT22;16382;59.942;30.472;2022-09-06T02:16:50;9.20;99.90
29403;DHT22;16382;59.942;30.472;2022-09-06T02:19:25;9.30;99.90
29403;DHT22;16382;59.942;30.472;2022-09-06T02:21:57;9.30;99.90
29403;DHT22;16382;59.942;30.472;2022-09-06T02:24:29;9.40;99.90
29403;DHT22;16382;59.942;30.472;2022-09-06T02:26:57;9.30;99.90
29403;DHT22;16382;59.942;30.472;2022-09-06T02:29:25;9.30;99.90
29403;DHT22;16382;59.942;30.472;2022-09-06T02:31:58;9.40;99.90
29403;DHT22;16382;59.942;30.472;2022-09-06T02:34:29;9.40;99.90
29403;DHT22;16382;59.942;30.472;2022-09-06T02:36:57;9.40;99.90
29403;DHT22;16382;59.942;30.472;2022-09-06T02:39:24;9.50;99.90
29403;DHT22;16382;59.942;30.472;2022-09-06T02:41:51;9.50;99.90
29403;DHT22;16382;59.942;30.472;2022-09-06T02:44:19;9.50;99.90
29403;DHT22;16382;59.942;30.472;2022-09-06T02:46:46;9.60;99.90
29403;DHT22;16382;59.942;30.472;2022-09-06T02:49:15;9.60;99.90
29403;DHT22;16382;59.942;30.472;2022-09-06T02:51:42;9.60;99.90
29403;DHT22;16382;59.942;30.472;2022-09-06T02:54:10;9.60;99.90
29403;DHT22;16382;59.942;30.472;2022-09-06T02:56:37;9.60;99.90
29403;DHT22;16382;59.942;30.472;2022-09-06T02:59:05;9.60;99.90
29403;DHT22;16382;59.942;30.472;2022-09-06T03:01:32;9.60;99.90
29403;DHT22;16382;59.942;30.472;2022-09-06T03:04:00;9.60;99.90
29403;DHT22;16382;59.942;30.472;2022-09-06T03:06:29;9.50;99.90
29403;DHT22;16382;59.942;30.472;2022-09-06T03:08:56;9.50;99.90
29403;DHT22;16382;59.942;30.472;2022-09-06T03:11:25;9.40;99.90
29403;DHT22;16382;59.942;30.472;2022-09-06T03:13:53;9.40;99.90
29403;DHT22;16382;59.942;30.472;2022-09-06T03:16:20;9.40;99.90
29403;DHT22;16382;59.942;30.472;2022-09-06T03:18:48;9.40;99.90
29403;DHT22;16382;59.942;30.472;2022-09-06T03:21:15;9.40;99.90
29403;DHT22;16382;59.942;30.472;2022-09-06T03:23:44;9.40;99.90
29403;DHT22;16382;59.942;30.472;2022-09-06T03:26:11;9.40;99.90
29403;DHT22;16382;59.942;30.472;2022-09-06T03:28:39;9.30;99.90
29403;DHT22;16382;59.942;30.472;2022-09-06T03:31:07;9.30;99.90
29403;DHT22;16382;59.942;30.472;2022-09-06T03:33:37;9.30;99.90
29403;DHT22;16382;59.942;30.472;2022-09-06T03:36:06;9.40;99.90
29403;DHT22;16382;59.942;30.472;2022-09-06T03:38:33;9.40;99.90
29403;DHT22;16382;59.942;30.472;2022-09-06T03:41:02;9.50;99.90
29403;DHT22;16382;59.942;30.472;2022-09-06T03:43:29;9.50;99.90
29403;DHT22;16382;59.942;30.472;2022-09-06T03:45:57;9.60;99.90
29403;DHT22;16382;59.942;30.472;2022-09-06T03:48:26;9.60;99.90
29403;DHT22;16382;59.942;30.472;2022-09-06T03:50:56;9.60;99.90
29403;DHT22;16382;59.942;30.472;2022-09-06T03:53:25;9.70;99.90
29403;DHT22;16382;59.942;30.472;2022-09-06T03:55:54;9.70;99.90
29403;DHT22;16382;59.942;30.472;2022-09-06T03:58:28;9.70;99.90
29403;DHT22;16382;59.942;30.472;2022-09-06T04:01:01;9.70;99.90
29403;DHT22;16382;59.942;30.472;2022-09-06T04:03:30;9.70;99.90
29403;DHT22;16382;59.942;30.472;2022-09-06T04:05:58;9.80;99.90
29403;DHT22;16382;59.942;30.472;2022-09-06T04:08:26;9.80;99.90
29403;DHT22;16382;59.942;30.472;2022-09-06T04:10:54;9.80;99.90
29403;DHT22;16382;59.942;30.472;2022-09-06T04:13:24;9.80;99.90
29403;DHT22;16382;59.942;30.472;2022-09-06T04:15:52;9.90;99.90
29403;DHT22;16382;59.942;30.472;2022-09-06T04:18:20;9.90;99.90
29403;DHT22;16382;59.942;30.472;2022-09-06T04:20:49;9.90;99.90
29403;DHT22;16382;59.942;30.472;2022-09-06T04:23:18;9.90;99.90
29403;DHT22;16382;59.942;30.472;2022-09-06T04:25:46;10.00;99.90
29403;DHT22;16382;59.942;30.472;2022-09-06T04:28:15;10.00;99.90
29403;DHT22;16382;59.942;30.472;2022-09-06T04:30:44;10.00;99.90
29403;DHT22;16382;59.942;30.472;2022-09-06T04:33:12;10.10;99.90
29403;DHT22;16382;59.942;30.472;2022-09-06T04:35:39;10.10;99.90
29403;DHT22;16382;59.942;30.472;2022-09-06T04:38:07;10.20;99.90
29403;DHT22;16382;59.942;30.472;2022-09-06T04:40:34;10.20;99.90
29403;DHT22;16382;59.942;30.472;2022-09-06T04:43:01;10.20;99.90
29403;DHT22;16382;59.942;30.472;2022-09-06T04:45:29;10.20;99.90
29403;DHT22;16382;59.942;30.472;2022-09-06T04:47:58;10.30;99.90
29403;DHT22;16382;59.942;30.472;2022-09-06T04:50:26;10.40;99.90
29403;DHT22;16382;59.942;30.472;2022-09-06T04:53:03;10.40;99.90
29403;DHT22;16382;59.942;30.472;2022-09-06T04:55:31;10.40;99.90
29403;DHT22;16382;59.942;30.472;2022-09-06T04:57:59;10.40;99.90
29403;DHT22;16382;59.942;30.472;2022-09-06T05:00:29;10.40;99.90
29403;DHT22;16382;59.942;30.472;2022-09-06T05:02:59;10.30;99.90
29403;DHT22;16382;59.942;30.472;2022-09-06T05:05:26;10.20;99.90
29403;DHT22;16382;59.942;30.472;2022-09-06T05:07:55;10.20;99.90
29403;DHT22;16382;59.942;30.472;2022-09-06T05:10:23;10.20;99.90
29403;DHT22;16382;59.942;30.472;2022-09-06T05:12:52;10.20;99.90
29403;DHT22;16382;59.942;30.472;2022-09-06T05:15:21;10.20;99.90
29403;DHT22;16382;59.942;30.472;2022-09-06T05:17:49;10.20;99.90
29403;DHT22;16382;59.942;30.472;2022-09-06T05:20:18;10.30;99.90
29403;DHT22;16382;59.942;30.472;2022-09-06T05:22:51;10.30;99.90
29403;DHT22;16382;59.942;30.472;2022-09-06T05:25:19;10.40;99.90
29403;DHT22;16382;59.942;30.472;2022-09-06T05:27:46;10.50;99.90
29403;DHT22;16382;59.942;30.472;2022-09-06T05:30:14;10.60;99.90
29403;DHT22;16382;59.942;30.472;2022-09-06T05:32:42;10.70;99.90
29403;DHT22;16382;59.942;30.472;2022-09-06T05:35:10;10.70;99.90
29403;DHT22;16382;59.942;30.472;2022-09-06T05:37:39;10.70;99.90
29403;DHT22;16382;59.942;30.472;2022-09-06T05:40:07;10.80;99.90
29403;DHT22;16382;59.942;30.472;2022-09-06T05:42:36;10.90;99.90
29403;DHT22;16382;59.942;30.472;2022-09-06T05:45:06;11.00;99.90
29403;DHT22;16382;59.942;30.472;2022-09-06T05:47:34;11.00;99.90
29403;DHT22;16382;59.942;30.472;2022-09-06T05:50:02;11.00;99.90
29403;DHT22;16382;59.942;30.472;2022-09-06T05:52:31;11.00;99.90
29403;DHT22;16382;59.942;30.472;2022-09-06T05:55:02;11.00;99.90
29403;DHT22;16382;59.942;30.472;2022-09-06T05:57:30;11.10;99.90
29403;DHT22;16382;59.942;30.472;2022-09-06T05:59:58;11.10;99.90
29403;DHT22;16382;59.942;30.472;2022-09-06T06:02:25;11.10;99.90
29403;DHT22;16382;59.942;30.472;2022-09-06T06:04:53;11.10;99.90
29403;DHT22;16382;59.942;30.472;2022-09-06T06:07:20;11.20;99.90
29403;DHT22;16382;59.942;30.472;2022-09-06T06:09:47;11.30;99.90
29403;DHT22;16382;59.942;30.472;2022-09-06T06:12:16;11.40;99.90
29403;DHT22;16382;59.942;30.472;2022-09-06T06:14:44;11.50;99.90
29403;DHT22;16382;59.942;30.472;2022-09-06T06:17:11;11.60;99.90
29403;DHT22;16382;59.942;30.472;2022-09-06T06:19:38;11.60;99.90
29403;DHT22;16382;59.942;30.472;2022-09-06T06:22:06;11.70;99.90
29403;DHT22;16382;59.942;30.472;2022-09-06T06:24:33;11.70;99.90
29403;DHT22;16382;59.942;30.472;2022-09-06T06:27:01;11.80;99.90
29403;DHT22;16382;59.942;30.472;2022-09-06T06:29:30;11.80;99.90
29403;DHT22;16382;59.942;30.472;2022-09-06T06:31:57;11.80;99.90
29403;DHT22;16382;59.942;30.472;2022-09-06T06:34:25;11.80;99.90
29403;DHT22;16382;59.942;30.472;2022-09-06T06:36:53;11.80;99.90
29403;DHT22;16382;59.942;30.472;2022-09-06T06:39:20;11.90;99.90
29403;DHT22;16382;59.942;30.472;2022-09-06T06:41:48;11.90;99.90
29403;DHT22;16382;59.942;30.472;2022-09-06T06:44:39;12.00;99.90
29403;DHT22;16382;59.942;30.472;2022-09-06T06:47:07;12.10;99.90
29403;DHT22;16382;59.942;30.472;2022-09-06T06:49:34;12.20;99.90
29403;DHT22;16382;59.942;30.472;2022-09-06T06:52:02;12.30;99.90
29403;DHT22;16382;59.942;30.472;2022-09-06T06:54:29;12.40;99.90
29403;DHT22;16382;59.942;30.472;2022-09-06T06:56:56;12.50;99.90
29403;DHT22;16382;59.942;30.472;2022-09-06T06:59:24;12.60;99.90
29403;DHT22;16382;59.942;30.472;2022-09-06T07:01:53;12.80;99.90
29403;DHT22;16382;59.942;30.472;2022-09-06T07:04:20;13.00;99.90
29403;DHT22;16382;59.942;30.472;2022-09-06T07:06:50;13.10;99.90
29403;DHT22;16382;59.942;30.472;2022-09-06T07:09:19;13.30;99.90
29403;DHT22;16382;59.942;30.472;2022-09-06T07:11:48;13.50;99.90
29403;DHT22;16382;59.942;30.472;2022-09-06T07:14:15;13.80;99.90
29403;DHT22;16382;59.942;30.472;2022-09-06T07:16:43;14.20;99.90
29403;DHT22;16382;59.942;30.472;2022-09-06T07:19:12;14.70;99.90
29403;DHT22;16382;59.942;30.472;2022-09-06T07:21:40;15.20;99.90
29403;DHT22;16382;59.942;30.472;2022-09-06T07:24:07;15.70;99.90
29403;DHT22;16382;59.942;30.472;2022-09-06T07:26:35;16.20;99.90
29403;DHT22;16382;59.942;30.472;2022-09-06T07:29:04;16.60;99.90
29403;DHT22;16382;59.942;30.472;2022-09-06T07:31:33;16.80;99.90
29403;DHT22;16382;59.942;30.472;2022-09-06T07:34:01;17.00;99.90
29403;DHT22;16382;59.942;30.472;2022-09-06T07:36:31;17.40;99.90
29403;DHT22;16382;59.942;30.472;2022-09-06T07:38:58;17.70;99.90
29403;DHT22;16382;59.942;30.472;2022-09-06T07:41:26;17.80;99.90
29403;DHT22;16382;59.942;30.472;2022-09-06T07:43:53;17.70;99.90
29403;DHT22;16382;59.942;30.472;2022-09-06T07:46:21;17.50;99.90
29403;DHT22;16382;59.942;30.472;2022-09-06T07:48:48;17.30;99.90
29403;DHT22;16382;59.942;30.472;2022-09-06T07:51:17;17.20;99.90
29403;DHT22;16382;59.942;30.472;2022-09-06T07:53:52;17.20;99.90
29403;DHT22;16382;59.942;30.472;2022-09-06T07:56:21;17.30;99.90
29403;DHT22;16382;59.942;30.472;2022-09-06T07:58:49;17.30;99.90
29403;DHT22;16382;59.942;30.472;2022-09-06T08:01:28;17.10;99.90
29403;DHT22;16382;59.942;30.472;2022-09-06T08:03:57;17.30;99.90
29403;DHT22;16382;59.942;30.472;2022-09-06T08:06:27;17.50;99.90
29403;DHT22;16382;59.942;30.472;2022-09-06T08:08:57;18.10;99.90
29403;DHT22;16382;59.942;30.472;2022-09-06T08:11:27;19.10;99.90
29403;DHT22;16382;59.942;30.472;2022-09-06T08:13:57;19.90;96.30
29403;DHT22;16382;59.942;30.472;2022-09-06T08:16:28;20.60;95.00
29403;DHT22;16382;59.942;30.472;2022-09-06T08:18:58;21.40;91.80
29403;DHT22;16382;59.942;30.472;2022-09-06T08:21:28;21.90;88.00
29403;DHT22;16382;59.942;30.472;2022-09-06T08:23:59;22.00;82.80
29403;DHT22;16382;59.942;30.472;2022-09-06T08:26:29;21.80;84.70
29403;DHT22;16382;59.942;30.472;2022-09-06T08:29:03;21.80;81.40
29403;DHT22;16382;59.942;30.472;2022-09-06T08:31:41;22.40;79.30
29403;DHT22;16382;59.942;30.472;2022-09-06T08:34:10;21.90;75.10
29403;DHT22;16382;59.942;30.472;2022-09-06T08:36:39;21.00;72.10
29403;DHT22;16382;59.942;30.472;2022-09-06T08:39:09;20.30;72.80
29403;DHT22;16382;59.942;30.472;2022-09-06T08:41:45;19.60;73.80
29403;DHT22;16382;59.942;30.472;2022-09-06T08:46:52;18.20;77.90
29403;DHT22;16382;59.942;30.472;2022-09-06T08:49:23;17.70;80.10
29403;DHT22;16382;59.942;30.472;2022-09-06T08:54:54;17.60;83.30
29403;DHT22;16382;59.942;30.472;2022-09-06T08:57:37;17.80;83.40
29403;DHT22;16382;59.942;30.472;2022-09-06T09:00:12;17.70;84.70
29403;DHT22;16382;59.942;30.472;2022-09-06T09:02:42;17.30;83.50
29403;DHT22;16382;59.942;30.472;2022-09-06T09:05:21;16.90;85.00
29403;DHT22;16382;59.942;30.472;2022-09-06T09:07:59;16.50;87.00
29403;DHT22;16382;59.942;30.472;2022-09-06T09:10:40;16.20;87.40
29403;DHT22;16382;59.942;30.472;2022-09-06T09:13:27;16.00;88.20
29403;DHT22;16382;59.942;30.472;2022-09-06T09:15:58;15.90;89.30
29403;DHT22;16382;59.942;30.472;2022-09-06T09:18:28;15.90;88.60
29403;DHT22;16382;59.942;30.472;2022-09-06T09:20:57;15.80;90.20
29403;DHT22;16382;59.942;30.472;2022-09-06T09:23:27;15.90;91.90
29403;DHT22;16382;59.942;30.472;2022-09-06T09:25:59;15.80;91.20
29403;DHT22;16382;59.942;30.472;2022-09-06T09:28:29;15.80;91.40
29403;DHT22;16382;59.942;30.472;2022-09-06T09:30:56;15.70;91.80
29403;DHT22;16382;59.942;30.472;2022-09-06T09:33:29;15.60;92.20
29403;DHT22;16382;59.942;30.472;2022-09-06T09:35:58;15.40;92.70
29403;DHT22;16382;59.942;30.472;2022-09-06T09:38:30;15.30;93.90
29403;DHT22;16382;59.942;30.472;2022-09-06T09:41:02;15.40;93.30
29403;DHT22;16382;59.942;30.472;2022-09-06T09:43:32;15.30;92.00
29403;DHT22;16382;59.942;30.472;2022-09-06T09:46:14;15.20;92.10
29403;DHT22;16382;59.942;30.472;2022-09-06T09:48:58;15.10;91.50
29403;DHT22;16382;59.942;30.472;2022-09-06T09:51:27;15.20;91.30
29403;DHT22;16382;59.942;30.472;2022-09-06T09:53:57;15.20;90.90
29403;DHT22;16382;59.942;30.472;2022-09-06T09:56:34;15.10;91.60
29403;DHT22;16382;59.942;30.472;2022-09-06T09:59:21;15.00;92.70
29403;DHT22;16382;59.942;30.472;2022-09-06T10:01:53;14.90;93.60
29403;DHT22;16382;59.942;30.472;2022-09-06T10:04:28;15.00;94.70
29403;DHT22;16382;59.942;30.472;2022-09-06T10:07:09;15.00;95.40
29403;DHT22;16382;59.942;30.472;2022-09-06T10:09:45;15.00;95.60
29403;DHT22;16382;59.942;30.472;2022-09-06T10:12:17;14.90;96.40
29403;DHT22;16382;59.942;30.472;2022-09-06T10:14:47;14.80;97.20
29403;DHT22;16382;59.942;30.472;2022-09-06T10:17:20;14.80;97.40
29403;DHT22;16382;59.942;30.472;2022-09-06T10:19:55;14.70;98.20
29403;DHT22;16382;59.942;30.472;2022-09-06T10:22:27;14.80;98.00
29403;DHT22;16382;59.942;30.472;2022-09-06T10:25:25;14.90;98.10
29403;DHT22;16382;59.942;30.472;2022-09-06T10:28:29;15.00;98.00
29403;DHT22;16382;59.942;30.472;2022-09-06T10:31:18;15.10;97.10
29403;DHT22;16382;59.942;30.472;2022-09-06T10:37:28;16.20;96.40
29403;DHT22;16382;59.942;30.472;2022-09-06T10:40:06;16.50;95.00
29403;DHT22;16382;59.942;30.472;2022-09-06T10:42:40;16.40;95.20
29403;DHT22;16382;59.942;30.472;2022-09-06T10:45:22;16.60;95.20
29403;DHT22;16382;59.942;30.472;2022-09-06T10:48:02;16.80;95.60
29403;DHT22;16382;59.942;30.472;2022-09-06T10:50:40;17.00;95.60
29403;DHT22;16382;59.942;30.472;2022-09-06T10:53:15;17.10;96.00
29403;DHT22;16382;59.942;30.472;2022-09-06T10:56:06;17.20;96.20
29403;DHT22;16382;59.942;30.472;2022-09-06T10:58:44;17.30;95.70
29403;DHT22;16382;59.942;30.472;2022-09-06T11:01:25;17.20;95.60
29403;DHT22;16382;59.942;30.472;2022-09-06T11:03:59;16.90;95.80
29403;DHT22;16382;59.942;30.472;2022-09-06T11:06:31;16.70;96.50
29403;DHT22;16382;59.942;30.472;2022-09-06T11:09:08;16.60;97.00
29403;DHT22;16382;59.942;30.472;2022-09-06T11:11:44;16.80;97.20
29403;DHT22;16382;59.942;30.472;2022-09-06T11:14:15;16.80;95.80
29403;DHT22;16382;59.942;30.472;2022-09-06T11:16:48;16.70;96.70
29403;DHT22;16382;59.942;30.472;2022-09-06T11:19:20;16.60;97.10
29403;DHT22;16382;59.942;30.472;2022-09-06T11:22:10;16.50;97.00
29403;DHT22;16382;59.942;30.472;2022-09-06T11:25:33;16.40;97.70
29403;DHT22;16382;59.942;30.472;2022-09-06T11:28:15;16.50;98.00
29403;DHT22;16382;59.942;30.472;2022-09-06T11:30:49;16.60;98.30
29403;DHT22;16382;59.942;30.472;2022-09-06T11:33:29;16.70;98.80
29403;DHT22;16382;59.942;30.472;2022-09-06T11:36:18;16.90;98.80
29403;DHT22;16382;59.942;30.472;2022-09-06T11:39:01;16.90;99.20
29403;DHT22;16382;59.942;30.472;2022-09-06T11:41:32;17.00;99.90
29403;DHT22;16382;59.942;30.472;2022-09-06T11:44:01;17.20;99.50
29403;DHT22;16382;59.942;30.472;2022-09-06T11:46:58;17.20;99.90
29403;DHT22;16382;59.942;30.472;2022-09-06T11:49:36;17.50;99.80
29403;DHT22;16382;59.942;30.472;2022-09-06T11:55:31;18.00;99.10
29403;DHT22;16382;59.942;30.472;2022-09-06T11:58:03;17.80;99.10
29403;DHT22;16382;59.942;30.472;2022-09-06T12:00:32;17.60;99.80
29403;DHT22;16382;59.942;30.472;2022-09-06T12:03:00;17.60;99.60
29403;DHT22;16382;59.942;30.472;2022-09-06T12:05:30;17.50;99.90
29403;DHT22;16382;59.942;30.472;2022-09-06T12:08:31;17.50;99.90
29403;DHT22;16382;59.942;30.472;2022-09-06T12:11:05;17.50;99.90
29403;DHT22;16382;59.942;30.472;2022-09-06T12:13:54;17.50;99.90
29403;DHT22;16382;59.942;30.472;2022-09-06T12:17:15;17.40;99.90
29403;DHT22;16382;59.942;30.472;2022-09-06T12:19:43;17.10;99.90
29403;DHT22;16382;59.942;30.472;2022-09-06T12:25:50;16.80;99.90
29403;DHT22;16382;59.942;30.472;2022-09-06T12:28:30;16.60;99.90
29403;DHT22;16382;59.942;30.472;2022-09-06T12:31:22;16.50;99.90
29403;DHT22;16382;59.942;30.472;2022-09-06T12:33:53;16.20;99.90
29403;DHT22;16382;59.942;30.472;2022-09-06T12:36:23;15.90;99.90
29403;DHT22;16382;59.942;30.472;2022-09-06T12:38:57;15.70;99.90
29403;DHT22;16382;59.942;30.472;2022-09-06T12:41:27;15.60;99.90
29403;DHT22;16382;59.942;30.472;2022-09-06T12:43:57;15.60;99.90
29403;DHT22;16382;59.942;30.472;2022-09-06T12:46:28;15.80;99.90
29403;DHT22;16382;59.942;30.472;2022-09-06T12:49:02;16.00;99.90
29403;DHT22;16382;59.942;30.472;2022-09-06T12:51:32;16.30;99.90
29403;DHT22;16382;59.942;30.472;2022-09-06T12:54:03;16.60;99.90
29403;DHT22;16382;59.942;30.472;2022-09-06T12:56:45;16.90;99.90
29403;DHT22;16382;59.942;30.472;2022-09-06T12:59:15;17.20;99.90
29403;DHT22;16382;59.942;30.472;2022-09-06T13:01:52;17.80;99.90
29403;DHT22;16382;59.942;30.472;2022-09-06T13:04:29;17.90;99.90
29403;DHT22;16382;59.942;30.472;2022-09-06T13:07:01;17.60;99.90
29403;DHT22;16382;59.942;30.472;2022-09-06T13:09:30;17.10;99.90
29403;DHT22;16382;59.942;30.472;2022-09-06T13:12:03;16.90;99.90
29403;DHT22;16382;59.942;30.472;2022-09-06T13:14:33;16.90;99.90
29403;DHT22;16382;59.942;30.472;2022-09-06T13:17:01;17.00;99.90
29403;DHT22;16382;59.942;30.472;2022-09-06T13:19:32;17.40;99.90
29403;DHT22;16382;59.942;30.472;2022-09-06T13:22:01;17.30;99.90
29403;DHT22;16382;59.942;30.472;2022-09-06T13:24:43;16.90;99.90
29403;DHT22;16382;59.942;30.472;2022-09-06T13:27:32;16.40;99.90
29403;DHT22;16382;59.942;30.472;2022-09-06T13:30:03;16.00;99.90
29403;DHT22;16382;59.942;30.472;2022-09-06T13:32:34;15.80;99.90
29403;DHT22;16382;59.942;30.472;2022-09-06T13:35:03;15.70;99.90
29403;DHT22;16382;59.942;30.472;2022-09-06T13:37:32;15.60;99.90
29403;DHT22;16382;59.942;30.472;2022-09-06T13:40:35;15.60;99.90
29403;DHT22;16382;59.942;30.472;2022-09-06T13:43:08;15.50;99.90
29403;DHT22;16382;59.942;30.472;2022-09-06T13:45:38;15.30;99.90
29403;DHT22;16382;59.942;30.472;2022-09-06T13:48:05;15.20;99.90
29403;DHT22;16382;59.942;30.472;2022-09-06T13:50:33;15.20;99.90
29403;DHT22;16382;59.942;30.472;2022-09-06T13:53:01;15.10;99.90
29403;DHT22;16382;59.942;30.472;2022-09-06T13:55:31;15.10;99.90
29403;DHT22;16382;59.942;30.472;2022-09-06T13:57:58;15.00;99.90
29403;DHT22;16382;59.942;30.472;2022-09-06T14:00:27;14.90;99.90
29403;DHT22;16382;59.942;30.472;2022-09-06T14:02:54;14.80;99.90
29403;DHT22;16382;59.942;30.472;2022-09-06T14:05:22;14.60;99.90
29403;DHT22;16382;59.942;30.472;2022-09-06T14:07:50;14.60;99.90
29403;DHT22;16382;59.942;30.472;2022-09-06T14:10:17;14.60;99.90
29403;DHT22;16382;59.942;30.472;2022-09-06T14:12:49;14.50;99.90
29403;DHT22;16382;59.942;30.472;2022-09-06T14:15:17;14.50;99.90
29403;DHT22;16382;59.942;30.472;2022-09-06T14:17:44;14.40;99.90
29403;DHT22;16382;59.942;30.472;2022-09-06T14:20:12;14.30;99.90
29403;DHT22;16382;59.942;30.472;2022-09-06T14:22:40;14.30;99.90
29403;DHT22;16382;59.942;30.472;2022-09-06T14:25:08;14.30;99.90
29403;DHT22;16382;59.942;30.472;2022-09-06T14:27:36;14.30;99.90
29403;DHT22;16382;59.942;30.472;2022-09-06T14:30:06;14.20;99.90
29403;DHT22;16382;59.942;30.472;2022-09-06T14:32:35;14.10;99.90
29403;DHT22;16382;59.942;30.472;2022-09-06T14:35:03;14.10;99.90
29403;DHT22;16382;59.942;30.472;2022-09-06T14:37:30;14.10;99.90
29403;DHT22;16382;59.942;30.472;2022-09-06T14:39:58;14.00;99.90
29403;DHT22;16382;59.942;30.472;2022-09-06T14:42:25;14.00;99.90
29403;DHT22;16382;59.942;30.472;2022-09-06T14:44:53;14.00;99.90
29403;DHT22;16382;59.942;30.472;2022-09-06T14:47:22;14.00;99.90
29403;DHT22;16382;59.942;30.472;2022-09-06T14:49:49;13.90;99.90
29403;DHT22;16382;59.942;30.472;2022-09-06T14:52:17;13.90;99.90
29403;DHT22;16382;59.942;30.472;2022-09-06T14:54:44;13.80;99.90
29403;DHT22;16382;59.942;30.472;2022-09-06T14:57:12;13.80;99.90
29403;DHT22;16382;59.942;30.472;2022-09-06T14:59:39;13.70;99.90
29403;DHT22;16382;59.942;30.472;2022-09-06T15:02:07;13.70;99.90
29403;DHT22;16382;59.942;30.472;2022-09-06T15:04:35;13.70;99.90
29403;DHT22;16382;59.942;30.472;2022-09-06T15:07:03;13.70;99.90
29403;DHT22;16382;59.942;30.472;2022-09-06T15:09:31;13.70;99.90
29403;DHT22;16382;59.942;30.472;2022-09-06T15:11:58;13.70;99.90
29403;DHT22;16382;59.942;30.472;2022-09-06T15:14:27;13.60;99.90
29403;DHT22;16382;59.942;30.472;2022-09-06T15:16:56;13.70;99.90
29403;DHT22;16382;59.942;30.472;2022-09-06T15:19:26;13.60;99.90
29403;DHT22;16382;59.942;30.472;2022-09-06T15:21:56;13.60;99.90
29403;DHT22;16382;59.942;30.472;2022-09-06T15:24:26;13.60;99.90
29403;DHT22;16382;59.942;30.472;2022-09-06T15:26:54;13.60;99.90
29403;DHT22;16382;59.942;30.472;2022-09-06T15:29:22;13.60;99.90
29403;DHT22;16382;59.942;30.472;2022-09-06T15:31:49;13.50;99.90
29403;DHT22;16382;59.942;30.472;2022-09-06T15:34:18;13.50;99.90
29403;DHT22;16382;59.942;30.472;2022-09-06T15:36:46;13.50;99.90
29403;DHT22;16382;59.942;30.472;2022-09-06T15:39:15;13.40;99.90
29403;DHT22;16382;59.942;30.472;2022-09-06T15:41:43;13.30;99.90
29403;DHT22;16382;59.942;30.472;2022-09-06T15:44:12;13.30;99.90
29403;DHT22;16382;59.942;30.472;2022-09-06T15:46:46;13.20;99.90
29403;DHT22;16382;59.942;30.472;2022-09-06T15:49:16;13.10;99.90
29403;DHT22;16382;59.942;30.472;2022-09-06T15:51:45;13.00;99.90
29403;DHT22;16382;59.942;30.472;2022-09-06T15:54:15;12.90;99.90
29403;DHT22;16382;59.942;30.472;2022-09-06T15:56:43;12.80;99.90
29403;DHT22;16382;59.942;30.472;2022-09-06T15:59:10;12.80;99.90
29403;DHT22;16382;59.942;30.472;2022-09-06T16:01:38;12.70;99.90
29403;DHT22;16382;59.942;30.472;2022-09-06T16:04:06;12.70;99.90
29403;DHT22;16382;59.942;30.472;2022-09-06T16:06:35;12.60;99.90